Time;durP1;ratioP1;P1;durP2;ratioP2;P2;SDS_P1;SDS_P2;PMS_P1;PMS_P2;Temp;Humidity;BMP_temperature;BMP_pressure;BME280_temperature;BME280_humidity;BME280_pressure;Samples;Min_cycle;Max_cycle;Signal;HPM_P1;HPM_P2
2021/10/04 00:02:37;;;;;;;12.27;7.00;;;12.60;1.00;;;;;;4382897;28;656836;-73
2021/10/04 00:05:26;;;;;;;16.43;7.83;;;12.60;1.00;;;;;;4413481;28;657401;-73
2021/10/04 00:08:15;;;;;;;15.33;7.97;;;12.60;1.00;;;;;;4416700;28;656980;-73
2021/10/04 00:11:02;;;;;;;10.63;7.23;;;12.60;1.00;;;;;;4369884;28;656904;-72
2021/10/04 00:13:51;;;;;;;12.90;7.13;;;12.50;1.00;;;;;;4405278;28;656799;-74
2021/10/04 00:16:39;;;;;;;16.43;7.37;;;12.50;1.00;;;;;;4411125;28;657019;-72
2021/10/04 00:19:27;;;;;;;18.60;7.47;;;12.50;1.00;;;;;;4388640;28;658444;-73
2021/10/04 00:22:15;;;;;;;13.27;7.73;;;12.50;1.00;;;;;;4406789;28;657035;-73
2021/10/04 00:25:04;;;;;;;10.47;7.03;;;12.50;1.00;;;;;;4390125;28;658372;-72
2021/10/04 00:27:53;;;;;;;11.37;7.17;;;12.50;1.00;;;;;;4342072;28;657293;-72
2021/10/04 00:30:40;;;;;;;14.30;7.73;;;12.50;1.00;;;;;;4388214;28;656571;-72
2021/10/04 00:33:28;;;;;;;14.53;8.10;;;12.50;1.00;;;;;;4412925;28;656933;-73
2021/10/04 00:36:16;;;;;;;12.43;7.70;;;12.40;1.00;;;;;;4390328;28;656817;-73
2021/10/04 00:39:04;;;;;;;17.87;7.50;;;12.40;1.00;;;;;;4413936;28;657450;-72
2021/10/04 00:41:52;;;;;;;11.70;7.10;;;12.40;1.00;;;;;;4392632;28;656892;-72
2021/10/04 00:44:42;;;;;;;12.93;7.50;;;12.40;1.00;;;;;;4415460;28;656922;-73
2021/10/04 00:47:30;;;;;;;13.50;8.07;;;12.40;1.00;;;;;;4417309;28;657395;-72
2021/10/04 00:50:22;;;;;;;17.10;7.57;;;12.40;1.00;;;;;;4402852;28;656944;-72
2021/10/04 00:53:09;;;;;;;12.90;7.40;;;12.40;1.00;;;;;;4385748;28;657333;-73
2021/10/04 00:55:57;;;;;;;11.67;6.97;;;12.40;1.00;;;;;;4378365;28;658370;-72
2021/10/04 00:58:46;;;;;;;13.77;7.50;;;12.30;1.00;;;;;;4361908;28;657290;-72
2021/10/04 01:01:34;;;;;;;11.77;7.17;;;12.40;1.00;;;;;;4387890;28;656362;-72
2021/10/04 01:04:26;;;;;;;13.98;6.90;;;12.40;1.00;;;;;;4386269;28;656203;-72
2021/10/04 01:07:13;;;;;;;12.27;6.83;;;12.40;1.00;;;;;;4381462;28;657589;-72
2021/10/04 01:10:01;;;;;;;13.48;6.80;;;12.40;1.00;;;;;;4381435;28;656536;-72
2021/10/04 01:12:50;;;;;;;11.97;7.43;;;12.40;1.00;;;;;;4409515;28;657823;-72
2021/10/04 01:15:39;;;;;;;16.43;6.97;;;12.40;1.00;;;;;;4375841;28;658267;-73
2021/10/04 01:18:26;;;;;;;13.77;7.53;;;12.40;1.00;;;;;;4390562;28;656648;-72
2021/10/04 01:21:15;;;;;;;11.00;6.97;;;12.40;1.00;;;;;;4408134;28;657013;-73
2021/10/04 01:24:03;;;;;;;12.03;6.90;;;12.40;1.00;;;;;;4389593;28;657465;-72
2021/10/04 01:26:52;;;;;;;13.27;7.33;;;12.40;1.00;;;;;;4391306;28;656609;-73
2021/10/04 01:29:40;;;;;;;11.03;7.07;;;12.40;1.00;;;;;;4395091;28;656977;-72
2021/10/04 01:32:27;;;;;;;13.23;7.00;;;12.40;1.00;;;;;;4376534;28;656967;-72
2021/10/04 01:35:15;;;;;;;14.00;6.90;;;12.40;1.00;;;;;;4399268;28;656853;-72
2021/10/04 01:38:04;;;;;;;17.33;7.63;;;12.30;1.00;;;;;;4399098;28;657451;-72
2021/10/04 01:40:52;;;;;;;12.87;7.43;;;12.30;1.00;;;;;;4402446;28;657422;-72
2021/10/04 01:43:40;;;;;;;10.97;6.73;;;12.30;1.00;;;;;;4429143;28;657196;-72
2021/10/04 01:46:27;;;;;;;11.93;6.93;;;12.30;1.00;;;;;;4404840;28;657529;-73
2021/10/04 01:49:15;;;;;;;13.10;6.67;;;12.30;1.00;;;;;;4399337;28;657080;-72
2021/10/04 01:52:02;;;;;;;12.73;6.70;;;12.30;1.00;;;;;;4393808;28;657043;-72
2021/10/04 01:54:52;;;;;;;11.03;7.10;;;12.30;1.00;;;;;;4405361;28;657098;-73
2021/10/04 01:57:40;;;;;;;11.50;6.97;;;12.40;1.00;;;;;;4415263;28;657252;-73
2021/10/04 02:00:27;;;;;;;11.27;6.83;;;12.30;1.00;;;;;;4397285;28;657423;-73
2021/10/04 02:03:16;;;;;;;15.00;7.60;;;12.30;1.00;;;;;;4404442;28;656373;-74
2021/10/04 02:06:03;;;;;;;12.70;7.07;;;12.30;1.00;;;;;;4424914;28;657365;-73
2021/10/04 02:08:51;;;;;;;13.33;7.30;;;12.30;1.00;;;;;;4404636;28;657245;-72
2021/10/04 02:11:40;;;;;;;14.13;7.33;;;12.30;1.00;;;;;;4431030;28;656603;-73
2021/10/04 02:14:27;;;;;;;13.60;6.90;;;12.30;1.00;;;;;;4407470;28;656941;-73
2021/10/04 02:17:15;;;;;;;11.77;6.97;;;12.30;1.00;;;;;;4406307;28;656378;-73
2021/10/04 02:20:03;;;;;;;12.53;6.40;;;12.30;1.00;;;;;;4420944;28;657254;-73
2021/10/04 02:22:51;;;;;;;12.53;6.70;;;12.30;1.00;;;;;;4405162;28;656795;-73
2021/10/04 02:25:39;;;;;;;11.83;6.67;;;12.40;1.00;;;;;;4426271;28;658033;-73
2021/10/04 02:28:28;;;;;;;13.40;7.50;;;12.30;1.00;;;;;;4399593;28;656467;-73
2021/10/04 02:31:16;;;;;;;11.97;7.67;;;12.40;1.00;;;;;;4410912;28;656905;-73
2021/10/04 02:34:04;;;;;;;11.87;7.13;;;12.40;1.00;;;;;;4422334;28;657042;-72
2021/10/04 02:36:52;;;;;;;17.27;8.23;;;12.40;1.00;;;;;;4405791;28;656766;-73
2021/10/04 02:39:40;;;;;;;11.53;7.17;;;12.40;1.00;;;;;;4421933;28;656740;-73
2021/10/04 02:42:27;;;;;;;15.37;8.43;;;12.40;1.00;;;;;;4401085;28;658398;-73
2021/10/04 02:45:17;;;;;;;16.87;8.43;;;12.40;1.00;;;;;;4425737;28;657398;-73
2021/10/04 02:48:06;;;;;;;14.57;7.63;;;12.30;1.00;;;;;;4396694;28;656278;-73
2021/10/04 02:50:53;;;;;;;12.87;7.10;;;12.30;1.00;;;;;;4404997;28;656977;-73
2021/10/04 02:53:41;;;;;;;13.20;7.13;;;12.30;1.00;;;;;;4412135;28;656984;-73
2021/10/04 02:56:28;;;;;;;19.63;8.13;;;12.30;1.00;;;;;;4432986;28;657419;-73
2021/10/04 02:59:16;;;;;;;12.80;7.50;;;12.30;1.00;;;;;;4410509;28;656487;-73
2021/10/04 03:02:06;;;;;;;15.37;8.30;;;12.30;1.00;;;;;;4428085;28;656352;-73
2021/10/04 03:04:53;;;;;;;11.30;7.27;;;12.30;1.00;;;;;;4403524;28;657145;-73
2021/10/04 03:07:41;;;;;;;12.73;7.27;;;12.30;1.00;;;;;;4408526;28;656763;-73
2021/10/04 03:10:28;;;;;;;14.60;8.00;;;12.20;1.00;;;;;;4429466;28;656389;-73
2021/10/04 03:13:16;;;;;;;14.77;7.73;;;12.20;1.00;;;;;;4411496;28;657519;-73
2021/10/04 03:16:04;;;;;;;13.63;7.00;;;12.10;1.00;;;;;;4424950;28;656820;-72
2021/10/04 03:18:54;;;;;;;14.43;7.40;;;12.10;1.00;;;;;;4414061;28;656265;-73
2021/10/04 03:21:41;;;;;;;14.60;8.00;;;12.20;1.00;;;;;;4410162;28;657048;-73
2021/10/04 03:24:29;;;;;;;15.70;7.97;;;12.10;1.00;;;;;;4427560;28;656461;-73
2021/10/04 03:27:17;;;;;;;19.85;8.73;;;12.10;1.00;;;;;;4408483;28;657023;-73
2021/10/04 03:30:04;;;;;;;22.47;8.40;;;12.10;1.00;;;;;;4424739;28;657091;-73
2021/10/04 03:32:52;;;;;;;20.70;9.30;;;12.10;1.00;;;;;;4414146;28;657542;-72
2021/10/04 03:35:41;;;;;;;22.60;9.77;;;12.10;1.00;;;;;;4426595;28;656970;-73
2021/10/04 03:38:29;;;;;;;24.00;8.90;;;12.10;1.00;;;;;;4408881;28;656825;-72
2021/10/04 03:41:16;;;;;;;22.50;8.77;;;12.00;1.00;;;;;;4399474;28;656501;-73
2021/10/04 03:44:07;;;;;;;18.13;8.00;;;12.00;1.00;;;;;;4416983;28;656709;-73
2021/10/04 03:46:55;;;;;;;20.23;8.73;;;12.00;1.00;;;;;;4410889;28;656452;-73
2021/10/04 03:49:42;;;;;;;16.90;8.17;;;11.90;1.00;;;;;;4400833;28;657477;-73
2021/10/04 03:52:31;;;;;;;16.27;7.43;;;11.90;1.00;;;;;;4428786;28;656279;-73
2021/10/04 03:55:19;;;;;;;16.17;7.53;;;11.90;1.00;;;;;;4409422;28;656469;-73
2021/10/04 03:58:07;;;;;;;15.60;7.30;;;11.90;1.00;;;;;;4407056;28;656694;-73
2021/10/04 04:00:54;;;;;;;15.50;7.57;;;11.80;1.00;;;;;;4425574;28;656637;-73
2021/10/04 04:03:42;;;;;;;15.67;7.93;;;11.80;1.00;;;;;;4406269;28;657346;-73
2021/10/04 04:06:30;;;;;;;13.80;8.10;;;11.80;1.00;;;;;;4446120;28;657021;-72
2021/10/04 04:09:19;;;;;;;15.50;7.43;;;11.80;1.00;;;;;;4414884;28;658297;-73
2021/10/04 04:12:07;;;;;;;13.13;7.60;;;11.80;1.00;;;;;;4420164;28;657306;-72
2021/10/04 04:14:55;;;;;;;13.93;7.20;;;11.70;1.00;;;;;;4428521;28;656401;-72
2021/10/04 04:17:42;;;;;;;13.50;7.27;;;11.70;1.00;;;;;;4404347;28;657640;-73
2021/10/04 04:20:30;;;;;;;11.60;7.50;;;11.70;1.00;;;;;;4427734;28;657535;-73
2021/10/04 04:23:17;;;;;;;10.83;7.13;;;11.60;1.00;;;;;;4403567;28;657289;-73
2021/10/04 04:26:07;;;;;;;14.63;7.53;;;11.70;1.00;;;;;;4408319;28;657551;-73
2021/10/04 04:28:55;;;;;;;23.83;10.13;;;11.60;1.00;;;;;;4417053;28;656380;-73
2021/10/04 04:31:43;;;;;;;16.87;8.53;;;11.60;1.00;;;;;;4417908;28;658756;-73
2021/10/04 04:34:31;;;;;;;14.80;7.80;;;11.60;1.00;;;;;;4409373;28;656898;-73
2021/10/04 04:37:18;;;;;;;16.27;8.13;;;11.60;1.00;;;;;;4431608;28;656822;-72
2021/10/04 04:40:08;;;;;;;17.53;7.50;;;11.50;1.00;;;;;;4401956;28;657302;-73
2021/10/04 04:42:57;;;;;;;12.20;7.40;;;11.50;1.00;;;;;;4399778;28;656887;-73
2021/10/04 04:45:45;;;;;;;11.00;7.03;;;11.40;1.00;;;;;;4433431;28;656629;-73
2021/10/04 04:48:33;;;;;;;12.73;7.53;;;11.40;1.00;;;;;;4407960;28;658197;-73
2021/10/04 04:51:20;;;;;;;12.30;7.17;;;11.30;1.00;;;;;;4429734;28;656416;-73
2021/10/04 04:54:08;;;;;;;12.07;7.00;;;11.30;1.00;;;;;;4397702;28;658064;-73
2021/10/04 04:56:55;;;;;;;16.87;7.37;;;11.30;1.00;;;;;;4403782;28;656373;-73
2021/10/04 04:59:47;;;;;;;12.43;7.40;;;11.20;1.00;;;;;;4426449;28;657090;-72
2021/10/04 05:02:37;;;;;;;15.33;7.67;;;11.30;1.00;;;;;;4419484;28;656718;-73
2021/10/04 05:05:24;;;;;;;11.87;7.13;;;11.30;1.00;;;;;;4429502;28;656960;-73
2021/10/04 05:08:12;;;;;;;13.07;7.70;;;11.30;1.00;;;;;;4402029;28;656445;-72
2021/10/04 05:10:59;;;;;;;14.57;7.70;;;11.30;1.00;;;;;;4426372;28;656208;-72
2021/10/04 05:13:48;;;;;;;19.83;7.60;;;11.30;1.00;;;;;;4402328;28;657187;-72
2021/10/04 05:16:37;;;;;;;12.37;7.43;;;11.30;1.00;;;;;;4406638;28;657203;-73
2021/10/04 05:19:25;;;;;;;12.83;7.83;;;11.30;1.00;;;;;;4422648;28;656681;-73
2021/10/04 05:22:12;;;;;;;16.30;7.83;;;11.30;1.00;;;;;;4411562;28;656934;-73
2021/10/04 05:25:00;;;;;;;13.03;7.67;;;11.40;1.00;;;;;;4416835;28;656501;-73
2021/10/04 05:27:51;;;;;;;13.77;7.20;;;11.40;1.00;;;;;;4430788;28;656869;-72
2021/10/04 05:30:40;;;;;;;13.20;8.00;;;11.50;1.00;;;;;;4418504;28;657165;-72
2021/10/04 05:33:29;;;;;;;12.97;7.73;;;11.60;1.00;;;;;;4399904;28;658400;-73
2021/10/04 05:36:17;;;;;;;13.83;7.40;;;11.70;1.00;;;;;;4387510;28;657175;-72
2021/10/04 05:39:05;;;;;;;13.48;7.13;;;11.80;1.00;;;;;;4412708;28;656155;-72
2021/10/04 05:41:53;;;;;;;11.27;6.97;;;11.80;1.00;;;;;;4386278;28;658265;-72
2021/10/04 05:44:40;;;;;;;12.67;7.80;;;11.90;1.00;;;;;;4394733;28;656774;-73
2021/10/04 05:47:28;;;;;;;12.17;7.57;;;12.00;1.00;;;;;;4411496;28;656733;-73
2021/10/04 05:50:17;;;;;;;11.20;6.97;;;12.00;1.00;;;;;;4388034;28;656583;-74
2021/10/04 05:53:05;;;;;;;13.43;7.30;;;12.20;1.00;;;;;;4402255;28;657327;-73
2021/10/04 05:55:52;;;;;;;22.27;7.93;;;12.40;1.00;;;;;;4392524;28;657645;-73
2021/10/04 05:58:40;;;;;;;12.80;7.00;;;12.50;1.00;;;;;;4414768;28;656346;-74
2021/10/04 06:01:27;;;;;;;13.87;7.77;;;12.70;1.00;;;;;;4393136;28;657110;-73
2021/10/04 06:04:16;;;;;;;17.00;8.07;;;12.80;1.00;;;;;;4411045;28;656557;-74
2021/10/04 06:07:05;;;;;;;14.17;7.80;;;13.00;1.00;;;;;;4399005;28;656975;-73
2021/10/04 06:09:53;;;;;;;13.70;8.95;;;13.10;1.00;;;;;;4396671;28;656657;-73
2021/10/04 06:12:41;;;;;;;16.83;8.67;;;13.30;1.00;;;;;;4406474;28;656737;-74
2021/10/04 06:15:28;;;;;;;16.70;8.77;;;13.40;1.00;;;;;;4419984;28;657543;-74
2021/10/04 06:18:18;;;;;;;14.77;8.03;;;13.60;1.00;;;;;;4386416;28;656634;-74
2021/10/04 06:21:05;;;;;;;13.93;7.67;;;13.70;1.00;;;;;;4388142;28;656919;-74
2021/10/04 06:23:55;;;;;;;12.43;7.40;;;13.90;1.00;;;;;;4414699;28;657462;-74
2021/10/04 06:26:43;;;;;;;12.93;7.03;;;14.00;1.00;;;;;;4378192;28;657200;-74
2021/10/04 06:29:30;;;;;;;13.23;7.50;;;14.20;1.00;;;;;;4406534;28;657002;-75
2021/10/04 06:32:18;;;;;;;13.20;7.67;;;14.30;1.00;;;;;;4401542;28;657832;-74
2021/10/04 06:35:06;;;;;;;12.43;7.30;;;14.50;1.00;;;;;;4413250;28;656861;-74
2021/10/04 06:37:54;;;;;;;13.60;7.70;;;14.60;1.00;;;;;;4434666;28;657199;-74
2021/10/04 06:40:43;;;;;;;11.23;7.67;;;14.90;1.00;;;;;;4413388;28;656980;-74
2021/10/04 06:43:31;;;;;;;13.70;7.63;;;15.00;1.00;;;;;;4427354;28;656670;-74
2021/10/04 06:46:18;;;;;;;11.63;7.37;;;15.20;1.00;;;;;;4436140;28;656934;-74
2021/10/04 06:49:06;;;;;;;12.67;7.10;;;15.40;1.00;;;;;;4413955;28;656925;-73
2021/10/04 06:51:54;;;;;;;14.33;7.20;;;15.60;1.00;;;;;;4442535;28;656834;-74
2021/10/04 06:54:41;;;;;;;15.90;7.60;;;15.70;1.00;;;;;;4407352;28;657043;-74
2021/10/04 06:57:31;;;;;;;13.27;7.33;;;15.90;99.90;;;;;;4434812;28;657669;-73
2021/10/04 07:00:21;;;;;;;10.27;6.57;;;16.00;99.90;;;;;;4416763;28;658074;-73
2021/10/04 07:03:08;;;;;;;9.70;6.67;;;16.20;99.90;;;;;;4398611;28;659201;-73
2021/10/04 07:05:59;;;;;;;11.63;7.10;;;16.40;99.90;;;;;;4420669;28;656931;-73
2021/10/04 07:08:46;;;;;;;14.57;6.97;;;16.60;99.90;;;;;;4411324;28;658218;-73
2021/10/04 07:11:34;;;;;;;10.73;6.37;;;16.80;99.90;;;;;;4407426;28;657674;-73
2021/10/04 07:14:23;;;;;;;14.83;6.63;;;16.90;99.90;;;;;;4412483;28;658432;-74
2021/10/04 07:17:10;;;;;;;12.13;6.47;;;17.20;99.90;;;;;;4418883;28;657374;-73
2021/10/04 07:19:58;;;;;;;11.70;6.63;;;17.30;99.90;;;;;;4425436;28;658158;-73
2021/10/04 07:22:48;;;;;;;12.70;6.37;;;17.40;99.90;;;;;;4405573;28;658249;-74
2021/10/04 07:25:37;;;;;;;12.87;5.97;;;17.70;99.90;;;;;;4406637;28;657872;-74
2021/10/04 07:28:25;;;;;;;13.50;6.83;;;17.80;99.90;;;;;;4450963;28;657690;-73
2021/10/04 07:31:14;;;;;;;10.70;6.30;;;18.00;99.90;;;;;;4421638;28;657876;-74
2021/10/04 07:34:02;;;;;;;10.17;6.13;;;18.20;99.90;;;;;;4372916;28;658493;-74
2021/10/04 07:36:51;;;;;;;10.40;7.00;;;18.30;99.90;;;;;;4403664;28;657819;-74
2021/10/04 07:39:39;;;;;;;10.63;6.00;;;18.50;99.90;;;;;;4413598;28;657365;-74
2021/10/04 07:42:26;;;;;;;8.93;5.83;;;18.70;99.90;;;;;;4382054;28;657291;-73
2021/10/04 07:45:14;;;;;;;11.53;5.80;;;18.90;99.90;;;;;;4420691;28;656787;-73
2021/10/04 07:48:03;;;;;;;9.47;5.77;;;19.00;99.90;;;;;;4365481;28;657681;-72
2021/10/04 07:50:51;;;;;;;9.13;5.77;;;19.20;99.90;;;;;;4350724;28;656245;-73
2021/10/04 07:53:40;;;;;;;10.47;6.17;;;19.40;99.90;;;;;;4403307;28;657819;-72
2021/10/04 07:56:27;;;;;;;10.33;5.90;;;19.60;99.90;;;;;;4394966;28;660120;-73
2021/10/04 07:59:16;;;;;;;12.03;5.70;;;19.80;99.90;;;;;;4398957;28;657333;-72
2021/10/04 08:02:06;;;;;;;13.17;6.40;;;20.00;99.90;;;;;;4414720;28;658049;-72
2021/10/04 08:04:57;;;;;;;13.57;6.20;;;20.10;99.90;;;;;;4372064;28;657509;-73
2021/10/04 08:07:44;;;;;;;13.60;5.80;;;20.30;99.90;;;;;;4376337;28;658057;-73
2021/10/04 08:10:32;;;;;;;10.13;5.90;;;20.60;99.90;;;;;;4382314;28;657326;-73
2021/10/04 08:13:20;;;;;;;9.43;5.90;;;20.80;99.90;;;;;;4390034;28;657574;-74
2021/10/04 08:16:07;;;;;;;9.03;6.43;;;20.90;99.90;;;;;;4377116;28;657761;-74
2021/10/04 08:18:55;;;;;;;11.37;6.10;;;21.10;99.90;;;;;;4399005;28;656582;-74
2021/10/04 08:21:44;;;;;;;11.70;5.97;;;21.20;99.90;;;;;;4379461;28;657961;-74
2021/10/04 08:24:32;;;;;;;9.40;5.63;;;21.30;99.90;;;;;;4389527;28;657734;-73
2021/10/04 08:27:19;;;;;;;9.37;5.57;;;21.30;99.90;;;;;;4402216;28;656437;-73
2021/10/04 08:30:07;;;;;;;10.73;5.73;;;21.70;99.90;;;;;;4385327;28;656989;-73
2021/10/04 08:32:56;;;;;;;9.63;5.83;;;21.70;99.90;;;;;;4400348;28;657663;-73
2021/10/04 08:35:43;;;;;;;10.50;5.80;;;21.80;99.90;;;;;;4420088;28;658278;-73
2021/10/04 08:38:33;;;;;;;9.03;5.43;;;21.90;99.90;;;;;;4392405;28;657539;-72
2021/10/04 08:41:21;;;;;;;11.07;5.63;;;21.90;99.90;;;;;;4405719;28;656655;-74
2021/10/04 08:44:09;;;;;;;14.83;6.03;;;21.70;99.90;;;;;;4415333;28;658132;-74
2021/10/04 08:46:57;;;;;;;10.23;5.63;;;21.60;99.90;;;;;;4401460;28;658075;-74
2021/10/04 08:49:44;;;;;;;12.97;5.93;;;21.70;99.90;;;;;;4423629;28;658460;-74
2021/10/04 08:52:33;;;;;;;9.10;5.70;;;21.90;99.90;;;;;;4405776;28;659240;-74
2021/10/04 08:55:22;;;;;;;7.80;5.37;;;21.70;99.90;;;;;;4405911;28;656099;-75
2021/10/04 08:58:12;;;;;;;7.73;5.60;;;22.10;99.90;;;;;;4422218;28;656652;-75
2021/10/04 09:01:01;;;;;;;8.33;5.60;;;22.30;99.90;;;;;;4416163;28;656588;-74
2021/10/04 09:03:51;;;;;;;11.80;5.97;;;22.60;99.90;;;;;;4425274;28;656530;-75
2021/10/04 09:06:40;;;;;;;14.77;6.13;;;22.30;99.90;;;;;;4356414;28;657942;-74
2021/10/04 09:09:28;;;;;;;10.47;5.57;;;22.50;99.90;;;;;;4383776;28;658654;-73
2021/10/04 09:12:21;;;;;;;14.40;6.30;;;22.40;99.90;;;;;;4389756;28;657617;-73
2021/10/04 09:15:54;;;;;;;14.20;5.87;;;22.50;99.90;;;;;;4407069;28;658873;-75
2021/10/04 09:18:42;;;;;;;9.57;5.57;;;22.90;99.90;;;;;;4339922;28;658161;-75
2021/10/04 09:21:31;;;;;;;9.10;5.90;;;23.00;99.90;;;;;;4365560;28;656942;-73
2021/10/04 09:24:18;;;;;;;9.80;5.57;;;23.10;99.90;;;;;;4376763;28;656813;-73
2021/10/04 09:27:27;;;;;;;10.00;5.87;;;23.10;99.90;;;;;;4363671;28;657191;-73
2021/10/04 09:30:16;;;;;;;8.50;5.47;;;22.90;99.90;;;;;;4332813;28;657932;-74
2021/10/04 09:33:04;;;;;;;9.33;5.70;;;23.10;99.90;;;;;;4343283;28;656979;-74
2021/10/04 09:35:51;;;;;;;12.93;5.50;;;23.00;99.90;;;;;;4349240;28;656742;-74
2021/10/04 09:38:39;;;;;;;10.37;5.43;;;23.20;99.90;;;;;;4404684;28;657629;-75
2021/10/04 09:41:27;;;;;;;10.63;5.90;;;23.20;99.90;;;;;;4381392;28;658120;-73
2021/10/04 09:44:17;;;;;;;7.73;5.30;;;23.90;99.90;;;;;;4427954;28;657832;-72
2021/10/04 09:47:13;;;;;;;9.15;5.55;;;24.20;99.90;;;;;;4401652;28;656075;-72
2021/10/04 09:50:04;;;;;;;9.07;5.70;;;24.10;99.90;;;;;;4423265;28;656714;-74
2021/10/04 09:52:52;;;;;;;10.40;5.60;;;23.80;99.90;;;;;;4401888;28;656821;-72
2021/10/04 09:55:40;;;;;;;8.60;5.77;;;23.60;99.90;;;;;;4430529;28;657491;-74
2021/10/04 09:58:31;;;;;;;12.30;5.63;;;24.00;99.90;;;;;;4399511;28;657309;-73
2021/10/04 10:01:20;;;;;;;14.02;5.78;;;24.10;99.90;;;;;;4399878;28;657979;-72
2021/10/04 10:04:10;;;;;;;10.70;5.85;;;24.10;99.90;;;;;;4408997;28;658203;-72
2021/10/04 10:06:58;;;;;;;7.70;5.65;;;24.30;99.90;;;;;;4391247;28;658736;-73
2021/10/04 10:09:46;;;;;;;10.22;5.82;;;25.10;99.90;;;;;;4402230;28;656490;-72
2021/10/04 10:12:34;;;;;;;10.35;5.30;;;25.60;99.90;;;;;;4400088;28;659273;-73
2021/10/04 10:15:22;;;;;;;9.13;5.55;;;25.40;99.50;;;;;;4379180;28;658186;-73
2021/10/04 10:18:18;;;;;;;9.82;5.53;;;24.90;99.20;;;;;;4422912;28;657261;-74
2021/10/04 10:21:07;;;;;;;10.23;5.90;;;24.70;98.60;;;;;;4372572;28;657085;-76
2021/10/04 10:23:55;;;;;;;8.32;5.90;;;24.20;99.10;;;;;;4428731;28;657598;-74
2021/10/04 10:26:44;;;;;;;8.98;5.53;;;23.80;98.70;;;;;;4411434;28;656935;-73
2021/10/04 10:29:32;;;;;;;8.70;4.83;;;24.40;99.90;;;;;;4407627;28;657520;-72
2021/10/04 10:32:20;;;;;;;11.17;4.90;;;24.80;99.90;;;;;;4420521;28;656131;-73
2021/10/04 10:35:10;;;;;;;8.07;5.30;;;25.10;96.50;;;;;;4373183;28;659027;-73
2021/10/04 10:37:57;;;;;;;9.88;5.47;;;25.10;99.00;;;;;;4373978;28;657427;-73
2021/10/04 10:41:15;;;;;;;8.45;5.93;;;25.80;99.10;;;;;;4423439;28;656585;-74
2021/10/04 10:44:06;;;;;;;7.43;5.35;;;25.90;98.00;;;;;;4366220;28;657018;-73
2021/10/04 10:46:57;;;;;;;6.40;4.85;;;25.80;96.00;;;;;;4359891;28;657176;-75
2021/10/04 10:50:07;;;;;;;9.43;5.38;;;25.20;95.40;;;;;;4407624;28;656337;-74
2021/10/04 10:53:22;;;;;;;9.85;5.40;;;24.60;97.00;;;;;;4407637;28;656593;-74
2021/10/04 10:56:10;;;;;;;8.75;5.82;;;25.00;97.50;;;;;;4383849;28;656741;-73
2021/10/04 10:58:58;;;;;;;8.23;5.35;;;24.90;96.00;;;;;;4394536;28;657516;-73
2021/10/04 11:01:46;;;;;;;10.10;5.55;;;24.70;97.00;;;;;;4361330;28;656642;-74
2021/10/04 11:04:40;;;;;;;7.90;5.18;;;24.90;97.40;;;;;;4409781;28;658175;-74
2021/10/04 11:07:54;;;;;;;13.05;5.43;;;25.40;97.20;;;;;;4391965;28;656767;-73
2021/10/04 11:11:12;;;;;;;10.27;5.90;;;25.40;96.60;;;;;;4381951;28;657787;-74
2021/10/04 11:14:10;;;;;;;8.13;5.15;;;25.90;94.50;;;;;;4387495;28;657972;-72
2021/10/04 11:17:02;;;;;;;9.40;5.40;;;25.60;94.60;;;;;;4358630;28;656589;-73
2021/10/04 11:19:49;;;;;;;9.65;5.53;;;25.70;93.60;;;;;;4364000;28;657265;-73
2021/10/04 11:22:37;;;;;;;7.63;5.25;;;25.60;94.80;;;;;;4389655;28;657617;-72
2021/10/04 11:25:25;;;;;;;10.80;5.43;;;25.90;94.20;;;;;;4411330;28;656479;-72
2021/10/04 11:28:14;;;;;;;9.57;5.18;;;26.10;95.60;;;;;;4377467;28;657908;-74
2021/10/04 11:31:04;;;;;;;10.63;5.30;;;25.80;95.90;;;;;;4387870;28;657576;-72
2021/10/04 11:33:53;;;;;;;9.35;5.35;;;25.50;94.00;;;;;;4385388;28;657526;-73
2021/10/04 11:36:42;;;;;;;8.95;5.47;;;25.30;95.10;;;;;;4396966;28;656651;-74
2021/10/04 11:39:30;;;;;;;10.82;5.32;;;25.40;94.90;;;;;;4428814;28;656658;-72
2021/10/04 11:42:24;;;;;;;10.18;5.20;;;25.80;92.90;;;;;;4395916;28;658006;-72
2021/10/04 11:45:13;;;;;;;14.90;5.38;;;25.80;93.20;;;;;;4380799;28;658672;-73
2021/10/04 11:48:01;;;;;;;7.70;5.38;;;26.00;94.30;;;;;;4407987;28;658116;-72
2021/10/04 11:50:48;;;;;;;15.23;5.68;;;25.70;93.30;;;;;;4423023;28;657880;-72
2021/10/04 11:53:37;;;;;;;9.20;5.10;;;26.00;91.90;;;;;;4408669;28;657738;-72
2021/10/04 11:56:25;;;;;;;9.93;5.78;;;26.40;92.50;;;;;;4436630;28;657026;-74
2021/10/04 11:59:17;;;;;;;10.02;5.75;;;26.50;91.20;;;;;;4381354;28;658405;-74
2021/10/04 12:02:19;;;;;;;12.27;5.32;;;26.80;91.50;;;;;;4369844;28;657797;-74
2021/10/04 12:05:11;;;;;;;8.48;5.43;;;26.70;92.00;;;;;;4394447;28;658871;-72
2021/10/04 12:08:02;;;;;;;11.45;6.25;;;26.70;91.30;;;;;;4396988;28;657553;-73
2021/10/04 12:10:54;;;;;;;10.73;5.80;;;26.10;92.80;;;;;;4409049;28;658993;-72
2021/10/04 12:13:42;;;;;;;12.50;6.15;;;26.20;92.80;;;;;;4411558;28;657956;-73
2021/10/04 12:16:32;;;;;;;9.60;5.63;;;26.60;91.30;;;;;;4427982;28;657488;-72
2021/10/04 12:19:21;;;;;;;9.27;5.78;;;27.10;91.20;;;;;;4409651;28;656224;-72
2021/10/04 12:22:09;;;;;;;7.70;5.57;;;27.40;90.90;;;;;;4407135;28;657699;-72
2021/10/04 12:24:57;;;;;;;8.77;5.22;;;28.10;90.90;;;;;;4405203;28;656919;-73
2021/10/04 12:28:00;;;;;;;8.63;5.80;;;28.20;89.10;;;;;;4413419;28;656817;-72
2021/10/04 12:30:51;;;;;;;9.17;5.60;;;28.40;86.60;;;;;;4380995;28;657100;-74
2021/10/04 12:33:45;;;;;;;7.90;5.40;;;28.10;88.30;;;;;;4386836;28;657447;-72
2021/10/04 12:36:42;;;;;;;12.55;6.05;;;28.00;87.80;;;;;;4369147;28;658845;-72
2021/10/04 12:39:39;;;;;;;10.65;6.15;;;27.00;85.90;;;;;;4379895;28;657806;-72
2021/10/04 12:42:28;;;;;;;9.20;5.90;;;26.90;89.50;;;;;;4403359;28;659212;-74
2021/10/04 12:45:16;;;;;;;8.80;6.05;;;26.70;90.00;;;;;;4410913;28;656684;-75
2021/10/04 12:48:06;;;;;;;8.85;5.78;;;27.30;89.50;;;;;;4424710;28;657171;-74
2021/10/04 12:51:04;;;;;;;10.80;6.20;;;27.50;87.80;;;;;;4406982;28;657140;-74
2021/10/04 12:53:54;;;;;;;9.93;6.43;;;27.90;87.10;;;;;;4410962;28;658157;-72
2021/10/04 12:56:45;;;;;;;12.40;6.40;;;28.10;85.40;;;;;;4385467;28;657557;-72
2021/10/04 12:59:33;;;;;;;8.20;5.35;;;28.20;84.40;;;;;;4404415;28;658489;-72
2021/10/04 13:02:25;;;;;;;11.45;6.53;;;28.40;89.70;;;;;;4385396;28;656854;-73
2021/10/04 13:05:14;;;;;;;9.68;5.90;;;28.10;82.40;;;;;;4396973;28;658606;-73
2021/10/04 13:08:03;;;;;;;13.07;5.97;;;28.10;83.80;;;;;;4404329;28;656025;-73
2021/10/04 13:10:52;;;;;;;12.00;6.13;;;28.30;82.50;;;;;;4421203;28;657405;-72
2021/10/04 13:13:41;;;;;;;11.02;5.97;;;28.10;83.00;;;;;;4419601;28;657892;-72
2021/10/04 13:16:28;;;;;;;9.73;6.07;;;28.00;83.10;;;;;;4424172;28;659566;-72
2021/10/04 13:19:21;;;;;;;11.85;6.15;;;27.90;82.40;;;;;;4399282;28;656786;-72
2021/10/04 13:22:09;;;;;;;11.25;6.13;;;28.40;83.70;;;;;;4400147;28;658039;-73
2021/10/04 13:24:57;;;;;;;8.68;5.60;;;29.30;80.40;;;;;;4394459;28;657216;-72
2021/10/04 13:27:46;;;;;;;7.90;5.35;;;29.70;78.90;;;;;;4419576;28;656357;-74
2021/10/04 13:30:36;;;;;;;8.65;5.55;;;29.90;77.40;;;;;;4399402;28;656888;-72
2021/10/04 13:33:25;;;;;;;11.52;5.47;;;31.20;71.30;;;;;;4407934;28;657330;-72
2021/10/04 13:36:13;;;;;;;9.05;5.50;;;31.60;71.30;;;;;;4408734;28;658711;-72
2021/10/04 13:39:01;;;;;;;10.35;5.40;;;32.00;71.40;;;;;;4420118;28;656448;-74
2021/10/04 13:41:49;;;;;;;8.23;5.38;;;33.00;70.20;;;;;;4436735;28;657960;-72
2021/10/04 13:44:38;;;;;;;9.93;5.32;;;34.00;64.40;;;;;;4410674;28;656454;-73
2021/10/04 13:47:26;;;;;;;7.90;5.18;;;34.80;63.80;;;;;;4399529;28;657220;-73
2021/10/04 13:50:14;;;;;;;8.25;5.45;;;35.10;61.00;;;;;;4434436;28;657181;-73
2021/10/04 13:53:02;;;;;;;9.88;5.30;;;35.50;60.50;;;;;;4411652;28;656662;-74
2021/10/04 13:55:49;;;;;;;7.97;5.82;;;36.20;56.50;;;;;;4419194;28;657140;-72
2021/10/04 13:58:38;;;;;;;9.60;4.80;;;36.80;53.20;;;;;;4387699;28;657018;-72
2021/10/04 14:01:27;;;;;;;13.88;5.30;;;36.70;56.10;;;;;;4414263;28;657344;-75
2021/10/04 14:04:15;;;;;;;9.00;5.38;;;37.40;51.90;;;;;;4430365;28;657032;-73
2021/10/04 14:07:03;;;;;;;12.52;5.28;;;38.00;51.10;;;;;;4401339;28;657249;-72
2021/10/04 14:09:51;;;;;;;6.97;4.40;;;38.20;52.00;;;;;;4394334;28;658063;-74
2021/10/04 14:12:38;;;;;;;7.50;5.18;;;38.60;49.60;;;;;;4408339;28;657253;-73
2021/10/04 14:15:26;;;;;;;8.55;5.53;;;38.20;46.60;;;;;;4408563;28;656691;-75
2021/10/04 14:18:16;;;;;;;10.27;5.25;;;38.50;45.30;;;;;;4428798;28;656079;-72
2021/10/04 14:21:04;;;;;;;10.03;5.10;;;38.10;46.00;;;;;;4392254;28;658520;-72
2021/10/04 14:23:52;;;;;;;8.02;5.07;;;37.90;46.20;;;;;;4378848;28;657980;-72
2021/10/04 14:26:39;;;;;;;7.05;4.82;;;37.30;45.30;;;;;;4438430;28;656682;-73